createdAt,value
2023-05-15T00:02:24.008Z,64.86
2023-05-15T00:04:51.244Z,64.74
2023-05-15T00:07:18.235Z,64.73
2023-05-15T00:09:45.105Z,64.61
2023-05-15T00:12:11.931Z,64.51
2023-05-15T00:14:38.914Z,64.44
2023-05-15T00:17:06.387Z,64.38
2023-05-15T00:19:33.395Z,64.42
2023-05-15T00:22:00.301Z,64.53
2023-05-15T00:24:27.216Z,64.60
2023-05-15T00:26:54.181Z,64.60
2023-05-15T00:29:21.104Z,64.50
2023-05-15T00:31:48.126Z,64.38
2023-05-15T00:34:15.153Z,64.45
2023-05-15T00:36:42.092Z,64.35
2023-05-15T00:39:08.981Z,64.31
2023-05-15T00:41:37.310Z,64.31
2023-05-15T00:44:06.903Z,64.39
2023-05-15T00:46:36.751Z,64.37
2023-05-15T00:49:06.846Z,64.42
2023-05-15T00:51:33.713Z,64.45
2023-05-15T00:54:00.935Z,64.36
2023-05-15T00:56:30.866Z,64.32
2023-05-15T00:59:00.071Z,64.27
2023-05-15T01:01:27.556Z,64.37
2023-05-15T01:03:54.731Z,64.36
2023-05-15T01:06:21.770Z,64.27
2023-05-15T01:08:50.259Z,64.37
2023-05-15T01:11:18.058Z,64.55
2023-05-15T01:13:46.119Z,64.48
2023-05-15T01:16:13.033Z,64.55
2023-05-15T01:18:40.017Z,64.54
2023-05-15T01:21:18.943Z,64.52
2023-05-15T01:23:57.904Z,64.72
2023-05-15T01:26:52.758Z,64.66
2023-05-15T01:29:35.981Z,64.61
2023-05-15T01:32:09.343Z,64.64
2023-05-15T01:34:52.570Z,64.76
2023-05-15T01:37:24.853Z,64.79
2023-05-15T01:39:56.111Z,64.73
2023-05-15T01:42:28.150Z,64.68
2023-05-15T01:44:56.114Z,64.66
2023-05-15T01:47:39.558Z,64.60
2023-05-15T01:50:10.381Z,64.66
2023-05-15T01:52:40.937Z,64.64
2023-05-15T01:55:09.827Z,64.87
2023-05-15T01:57:37.518Z,64.95
2023-05-15T02:00:05.289Z,65.03
2023-05-15T02:02:42.477Z,65.06
2023-05-15T02:05:10.065Z,64.96
2023-05-15T02:07:38.419Z,64.84
2023-05-15T02:10:06.004Z,64.83
2023-05-15T02:12:33.810Z,64.82
2023-05-15T02:15:03.900Z,64.76
2023-05-15T02:17:31.348Z,64.85
2023-05-15T02:19:58.301Z,64.87
2023-05-15T02:22:25.356Z,64.95
2023-05-15T02:24:52.613Z,64.95
2023-05-15T02:27:29.243Z,64.90
2023-05-15T02:30:08.413Z,64.95
2023-05-15T02:32:46.234Z,64.91
2023-05-15T02:35:22.057Z,64.87
2023-05-15T02:37:54.120Z,64.96
2023-05-15T02:40:25.207Z,65.14
2023-05-15T02:42:54.443Z,65.21
2023-05-15T02:45:24.007Z,65.27
2023-05-15T02:47:52.463Z,65.30
2023-05-15T02:50:20.208Z,65.21
2023-05-15T02:52:47.076Z,65.14
2023-05-15T02:55:14.004Z,65.10
2023-05-15T02:57:40.979Z,65.12
2023-05-15T03:00:11.879Z,65.02
2023-05-15T03:02:39.193Z,65.05
2023-05-15T03:05:06.802Z,65.09
2023-05-15T03:07:33.753Z,65.14
2023-05-15T03:10:00.682Z,65.04
2023-05-15T03:12:27.788Z,65.01
2023-05-15T03:14:54.715Z,64.94
2023-05-15T03:17:22.465Z,64.88
2023-05-15T03:19:49.374Z,64.82
2023-05-15T03:22:16.501Z,64.76
2023-05-15T03:24:43.606Z,64.80
2023-05-15T03:27:10.640Z,64.88
2023-05-15T03:29:39.016Z,64.91
2023-05-15T03:32:06.351Z,64.93
2023-05-15T03:34:33.317Z,64.92
2023-05-15T03:37:00.246Z,64.88
2023-05-15T03:39:27.718Z,64.95
2023-05-15T03:41:54.592Z,64.84
2023-05-15T03:44:22.533Z,64.90
2023-05-15T03:46:49.647Z,64.90
2023-05-15T03:49:18.018Z,65.05
2023-05-15T03:51:44.976Z,65.17
2023-05-15T03:54:13.921Z,65.24
2023-05-15T03:56:41.039Z,65.29
2023-05-15T03:59:08.898Z,65.20
2023-05-15T04:01:44.027Z,65.12
2023-05-15T04:04:18.258Z,65.19
2023-05-15T04:06:45.151Z,65.08
2023-05-15T04:09:12.147Z,65.06
2023-05-15T04:11:39.093Z,65.15
2023-05-15T04:14:06.039Z,65.26
2023-05-15T04:16:33.109Z,65.43
2023-05-15T04:19:00.314Z,65.40
2023-05-15T04:21:28.923Z,65.51
2023-05-15T04:23:57.306Z,65.46
2023-05-15T04:26:24.251Z,65.41
2023-05-15T04:29:02.997Z,65.56
2023-05-15T04:31:31.827Z,65.62
2023-05-15T04:33:58.911Z,65.64
2023-05-15T04:36:26.050Z,65.71
2023-05-15T04:38:53.066Z,65.70
2023-05-15T04:41:19.967Z,65.74
2023-05-15T04:43:46.948Z,65.63
2023-05-15T04:46:13.951Z,65.62
2023-05-15T04:48:40.880Z,65.59
2023-05-15T04:51:07.976Z,65.56
2023-05-15T04:53:37.851Z,65.60
2023-05-15T04:56:04.992Z,65.55
2023-05-15T04:58:31.899Z,65.65
2023-05-15T05:00:59.561Z,65.57
2023-05-15T05:03:27.887Z,65.36
2023-05-15T05:05:54.751Z,65.28
2023-05-15T05:08:21.768Z,65.20
2023-05-15T05:10:48.614Z,65.18
2023-05-15T05:13:15.601Z,65.07
2023-05-15T05:15:42.611Z,64.82
2023-05-15T05:18:09.657Z,64.50
2023-05-15T05:20:36.798Z,64.22
2023-05-15T05:23:03.845Z,64.17
2023-05-15T05:25:30.902Z,64.06
2023-05-15T05:27:57.848Z,63.90
2023-05-15T05:30:24.990Z,63.76
2023-05-15T05:32:51.939Z,63.73
2023-05-15T05:35:19.293Z,63.60
2023-05-15T05:37:46.129Z,63.55
2023-05-15T05:40:13.630Z,63.49
2023-05-15T05:42:41.379Z,63.46
2023-05-15T05:45:08.818Z,63.37
2023-05-15T05:47:35.841Z,63.30
2023-05-15T05:50:03.279Z,63.35
2023-05-15T05:52:30.616Z,63.43
2023-05-15T05:54:57.760Z,63.44
2023-05-15T05:57:24.701Z,63.25
2023-05-15T05:59:51.674Z,63.14
2023-05-15T06:02:18.826Z,63.02
2023-05-15T06:04:46.500Z,62.90
2023-05-15T06:07:13.684Z,62.83
2023-05-15T06:09:40.821Z,62.70
2023-05-15T06:12:09.199Z,62.70
2023-05-15T06:14:36.206Z,62.60
2023-05-15T06:17:03.353Z,62.53
2023-05-15T06:19:30.668Z,62.38
2023-05-15T06:21:58.113Z,62.29
2023-05-15T06:24:25.121Z,62.27
2023-05-15T06:26:53.808Z,62.21
2023-05-15T06:29:22.006Z,62.21
2023-05-15T06:31:49.268Z,62.20
2023-05-15T06:34:16.187Z,62.10
2023-05-15T06:36:43.199Z,62.19
2023-05-15T06:39:13.154Z,62.13
2023-05-15T06:41:40.085Z,62.19
2023-05-15T06:44:12.077Z,62.17
2023-05-15T06:46:38.964Z,62.13
2023-05-15T06:49:06.216Z,62.11
2023-05-15T06:51:33.167Z,62.17
2023-05-15T06:54:00.133Z,62.20
2023-05-15T06:56:27.069Z,62.04
2023-05-15T06:58:55.208Z,61.93
2023-05-15T07:01:22.332Z,62.05
2023-05-15T07:03:55.255Z,61.99
2023-05-15T07:06:22.371Z,62.00
2023-05-15T07:08:49.693Z,61.88
2023-05-15T07:11:16.730Z,61.76
2023-05-15T07:13:43.916Z,61.76
2023-05-15T07:16:11.650Z,61.74
2023-05-15T07:18:38.800Z,61.75
2023-05-15T07:21:06.253Z,61.71
2023-05-15T07:23:33.197Z,61.77
2023-05-15T07:26:00.279Z,61.83
2023-05-15T07:28:30.721Z,61.86
2023-05-15T07:30:57.717Z,61.88
2023-05-15T07:33:24.699Z,61.87
2023-05-15T07:35:52.234Z,61.84
2023-05-15T07:38:19.148Z,61.81
2023-05-15T07:40:48.927Z,61.85
2023-05-15T07:43:17.112Z,61.81
2023-05-15T07:45:44.529Z,61.95
2023-05-15T07:48:17.884Z,62.00
2023-05-15T07:50:51.194Z,62.02
2023-05-15T07:53:18.175Z,61.89
2023-05-15T07:55:45.531Z,61.88
2023-05-15T07:58:12.473Z,61.91
2023-05-15T08:00:39.400Z,61.91
2023-05-15T08:03:06.401Z,61.93
2023-05-15T08:05:33.447Z,61.95
2023-05-15T08:08:00.879Z,61.94
2023-05-15T08:10:27.866Z,61.93
2023-05-15T08:12:54.820Z,61.89
2023-05-15T08:15:24.909Z,61.96
2023-05-15T08:17:52.211Z,61.87
2023-05-15T08:20:19.287Z,61.87
2023-05-15T08:22:46.434Z,61.99
2023-05-15T08:25:13.390Z,62.13
2023-05-15T08:27:40.330Z,62.08
2023-05-15T08:30:07.850Z,61.96
2023-05-15T08:32:34.942Z,61.88
2023-05-15T08:35:01.900Z,61.89
2023-05-15T08:37:28.790Z,61.82
2023-05-15T08:39:55.791Z,61.82
2023-05-15T08:42:34.459Z,61.82
2023-05-15T08:45:02.136Z,61.75
2023-05-15T08:47:32.533Z,61.86
2023-05-15T08:50:15.619Z,61.71
2023-05-15T08:52:49.669Z,61.82
2023-05-15T08:55:17.838Z,61.72
2023-05-15T08:57:46.096Z,61.67
2023-05-15T09:00:14.992Z,61.74
2023-05-15T09:02:43.281Z,61.76
2023-05-15T09:05:10.523Z,61.71
2023-05-15T09:07:41.236Z,61.74
2023-05-15T09:10:10.721Z,61.68
2023-05-15T09:12:43.936Z,61.72
2023-05-15T09:15:22.082Z,61.66
2023-05-15T09:17:49.260Z,61.69
2023-05-15T09:20:31.619Z,61.64
2023-05-15T09:23:00.774Z,61.64
2023-05-15T09:25:38.634Z,61.64
2023-05-15T09:28:24.973Z,61.45
2023-05-15T09:31:06.161Z,61.56
2023-05-15T09:33:39.173Z,61.62
2023-05-15T09:36:09.293Z,61.67
2023-05-15T09:38:42.607Z,61.67
2023-05-15T09:41:09.922Z,61.69
2023-05-15T09:43:38.148Z,61.71
2023-05-15T09:46:06.525Z,61.84
2023-05-15T09:48:40.633Z,61.76
2023-05-15T09:51:25.823Z,61.64
2023-05-15T09:53:55.054Z,61.59
2023-05-15T09:56:22.741Z,61.55
2023-05-15T09:58:58.013Z,61.57
2023-05-15T10:01:26.507Z,61.48
2023-05-15T10:04:04.018Z,61.62
2023-05-15T10:06:45.771Z,61.59
2023-05-15T10:09:14.524Z,61.69
2023-05-15T10:11:46.318Z,61.62
2023-05-15T10:14:18.848Z,61.71
2023-05-15T10:16:46.131Z,61.60
2023-05-15T10:19:13.766Z,61.79
2023-05-15T10:21:43.000Z,61.77
2023-05-15T10:24:12.779Z,61.76
2023-05-15T10:26:43.026Z,61.54
2023-05-15T10:29:12.244Z,61.55
2023-05-15T10:32:01.238Z,61.58
2023-05-15T10:34:29.080Z,61.37
2023-05-15T10:36:56.934Z,61.56
2023-05-15T10:39:24.753Z,61.51
2023-05-15T10:41:51.970Z,61.58
2023-05-15T10:44:20.950Z,61.57
2023-05-15T10:46:49.519Z,61.66
2023-05-15T10:49:17.089Z,61.70
2023-05-15T10:51:44.499Z,61.67
2023-05-15T10:54:11.510Z,61.58
2023-05-15T10:56:40.187Z,61.45
2023-05-15T10:59:09.840Z,61.55
2023-05-15T11:01:38.759Z,61.62
2023-05-15T11:04:07.960Z,61.60
2023-05-15T11:06:36.143Z,61.61
2023-05-15T11:09:22.518Z,61.49
2023-05-15T11:11:52.837Z,61.50
2023-05-15T11:14:20.796Z,61.58
2023-05-15T11:16:58.734Z,61.83
2023-05-15T11:19:36.468Z,62.19
2023-05-15T11:22:09.848Z,62.39
2023-05-15T11:24:52.508Z,62.34
2023-05-15T11:27:47.214Z,62.61
2023-05-15T11:30:18.548Z,62.59
2023-05-15T11:33:01.918Z,62.48
2023-05-15T11:35:42.626Z,62.30
2023-05-15T11:38:20.291Z,62.31
2023-05-15T11:40:56.947Z,62.16
2023-05-15T11:43:37.528Z,62.10
2023-05-15T11:46:08.116Z,62.06
2023-05-15T11:48:41.910Z,62.15
2023-05-15T11:51:22.713Z,62.03
2023-05-15T11:53:51.220Z,61.97
2023-05-15T11:56:28.691Z,62.00
2023-05-15T11:59:00.741Z,62.02
2023-05-15T12:01:43.697Z,62.10
2023-05-15T12:04:19.025Z,62.03
2023-05-15T12:06:50.871Z,61.92
2023-05-15T12:09:29.276Z,61.90
2023-05-15T12:12:00.330Z,61.94
2023-05-15T12:14:32.816Z,61.98
2023-05-15T12:17:07.033Z,61.74
2023-05-15T12:19:40.288Z,61.71
2023-05-15T12:22:09.780Z,61.73
2023-05-15T12:24:40.639Z,61.64
2023-05-15T12:27:08.941Z,61.51
2023-05-15T12:29:37.397Z,61.48
2023-05-15T12:32:08.476Z,61.55
2023-05-15T12:34:35.989Z,61.49
2023-05-15T12:37:04.247Z,61.45
2023-05-15T12:39:31.167Z,61.46
2023-05-15T12:42:01.598Z,61.47
2023-05-15T12:44:29.698Z,61.43
2023-05-15T12:46:56.977Z,61.36
2023-05-15T12:49:24.409Z,61.39
2023-05-15T12:51:53.808Z,61.41
2023-05-15T12:54:21.291Z,61.44
2023-05-15T12:56:49.384Z,61.34
2023-05-15T12:59:16.694Z,61.26
2023-05-15T13:01:43.745Z,61.45
2023-05-15T13:04:11.368Z,61.42
2023-05-15T13:06:46.596Z,61.23
2023-05-15T13:09:21.516Z,61.35
2023-05-15T13:11:49.403Z,61.21
2023-05-15T13:14:21.498Z,61.21
2023-05-15T13:16:49.492Z,61.16
2023-05-15T13:19:17.887Z,61.15
2023-05-15T13:21:45.944Z,61.14
2023-05-15T13:24:12.982Z,61.03
2023-05-15T13:26:40.841Z,61.09
2023-05-15T13:29:07.807Z,61.11
2023-05-15T13:31:35.382Z,61.16
2023-05-15T13:34:02.963Z,61.22
2023-05-15T13:36:31.320Z,61.25
2023-05-15T13:38:58.292Z,61.28
2023-05-15T13:41:25.325Z,61.29
2023-05-15T13:43:52.343Z,61.27
2023-05-15T13:46:19.701Z,61.35
2023-05-15T13:48:46.744Z,61.38
2023-05-15T13:51:13.718Z,61.30
2023-05-15T13:53:40.656Z,61.33
2023-05-15T13:56:09.434Z,61.20
2023-05-15T13:58:36.633Z,61.03
2023-05-15T14:01:07.120Z,61.13
2023-05-15T14:03:34.936Z,61.14
2023-05-15T14:06:02.105Z,61.08
2023-05-15T14:08:29.999Z,61.12
2023-05-15T14:10:57.734Z,61.18
2023-05-15T14:13:24.877Z,61.21
2023-05-15T14:15:55.215Z,61.10
2023-05-15T14:18:22.476Z,61.22
2023-05-15T14:20:49.699Z,61.14
2023-05-15T14:23:16.869Z,61.08
2023-05-15T14:25:44.284Z,61.22
2023-05-15T14:28:14.035Z,61.27
2023-05-15T14:30:41.281Z,61.47
2023-05-15T14:33:08.519Z,61.29
2023-05-15T14:35:36.562Z,61.43
2023-05-15T14:38:04.675Z,61.30
2023-05-15T14:40:31.778Z,61.37
2023-05-15T14:42:58.929Z,61.33
2023-05-15T14:45:26.158Z,61.22
2023-05-15T14:47:53.319Z,61.19
2023-05-15T14:50:21.655Z,61.32
2023-05-15T14:52:48.603Z,61.25
2023-05-15T14:55:16.255Z,61.21
2023-05-15T14:57:49.187Z,61.25
2023-05-15T15:00:21.757Z,61.25
2023-05-15T15:02:48.697Z,61.28
2023-05-15T15:05:16.063Z,61.34
2023-05-15T15:08:06.302Z,61.27
2023-05-15T15:10:35.301Z,61.31
2023-05-15T15:13:02.645Z,61.25
2023-05-15T15:15:30.924Z,61.28
2023-05-15T15:17:58.300Z,61.22
2023-05-15T15:20:27.391Z,61.23
2023-05-15T15:22:56.080Z,61.13
2023-05-15T15:25:23.299Z,61.20
2023-05-15T15:27:54.914Z,61.35
2023-05-15T15:30:24.027Z,61.54
2023-05-15T15:32:51.985Z,61.77
2023-05-15T15:35:19.473Z,61.93
2023-05-15T15:37:46.740Z,62.13
2023-05-15T15:40:13.910Z,62.11
2023-05-15T15:42:40.948Z,62.21
2023-05-15T15:45:15.784Z,62.46
2023-05-15T15:47:43.777Z,62.60
2023-05-15T15:50:11.606Z,62.69
2023-05-15T15:52:38.651Z,62.79
2023-05-15T15:55:07.132Z,62.67
2023-05-15T15:57:34.669Z,62.54
2023-05-15T16:00:01.735Z,62.69
2023-05-15T16:02:35.918Z,62.72
2023-05-15T16:05:08.116Z,62.75
2023-05-15T16:07:38.547Z,62.83
2023-05-15T16:10:13.647Z,62.88
2023-05-15T16:12:46.604Z,63.19
2023-05-15T16:15:22.496Z,63.25
2023-05-15T16:17:57.345Z,63.18
2023-05-15T16:20:27.343Z,63.20
2023-05-15T16:22:55.853Z,63.28
2023-05-15T16:25:23.621Z,63.25
2023-05-15T16:27:55.731Z,63.18
2023-05-15T16:30:44.247Z,63.21
2023-05-15T16:33:15.806Z,63.23
2023-05-15T16:35:46.758Z,63.10
2023-05-15T16:38:17.478Z,63.34
2023-05-15T16:40:46.332Z,63.53
2023-05-15T16:43:14.217Z,63.55
2023-05-15T16:45:45.579Z,63.56
2023-05-15T16:48:14.868Z,63.41
2023-05-15T16:50:44.471Z,63.45
2023-05-15T16:53:15.226Z,63.55
2023-05-15T16:55:45.921Z,63.57
2023-05-15T16:58:18.628Z,63.50
2023-05-15T17:00:47.908Z,63.52
2023-05-15T17:03:25.209Z,63.45
2023-05-15T17:05:56.111Z,63.51
2023-05-15T17:08:24.934Z,63.68
2023-05-15T17:10:57.027Z,63.71
2023-05-15T17:13:38.934Z,63.52
2023-05-15T17:16:08.637Z,63.58
2023-05-15T17:18:38.192Z,63.47
2023-05-15T17:21:07.723Z,63.31
2023-05-15T17:23:35.408Z,63.34
2023-05-15T17:26:04.474Z,63.43
2023-05-15T17:28:33.108Z,63.54
2023-05-15T17:31:03.594Z,63.57
2023-05-15T17:33:31.825Z,63.67
2023-05-15T17:35:59.752Z,64.27
2023-05-15T17:38:27.398Z,64.58
2023-05-15T17:41:01.280Z,64.64
2023-05-15T17:43:31.432Z,64.89
2023-05-15T17:46:00.957Z,64.66
2023-05-15T17:48:28.191Z,65.44
2023-05-15T17:50:56.450Z,65.85
2023-05-15T17:53:27.714Z,66.77
2023-05-15T17:55:56.972Z,67.64
2023-05-15T17:58:25.481Z,68.10
2023-05-15T18:00:52.535Z,67.94
2023-05-15T18:03:20.421Z,68.05
2023-05-15T18:05:53.012Z,67.83
2023-05-15T18:08:21.135Z,67.50
2023-05-15T18:10:48.101Z,67.13
2023-05-15T18:13:15.080Z,66.97
2023-05-15T18:15:42.149Z,66.78
2023-05-15T18:18:11.551Z,66.53
2023-05-15T18:20:39.860Z,66.39
2023-05-15T18:23:07.925Z,66.22
2023-05-15T18:25:37.433Z,66.09
2023-05-15T18:28:04.813Z,66.21
2023-05-15T18:30:32.351Z,66.24
2023-05-15T18:33:01.550Z,66.45
2023-05-15T18:35:28.969Z,66.25
2023-05-15T18:37:56.988Z,66.10
2023-05-15T18:40:24.824Z,66.03
2023-05-15T18:42:52.032Z,65.95
2023-05-15T18:45:20.922Z,66.02
2023-05-15T18:47:51.816Z,66.30
2023-05-15T18:50:19.490Z,66.49
2023-05-15T18:52:47.052Z,66.64
2023-05-15T18:55:14.941Z,66.30
2023-05-15T18:57:42.467Z,66.20
2023-05-15T19:00:09.765Z,66.14
2023-05-15T19:02:40.338Z,66.11
2023-05-15T19:05:10.581Z,65.82
2023-05-15T19:07:37.728Z,66.24
2023-05-15T19:10:07.434Z,65.57
2023-05-15T19:12:34.687Z,65.13
2023-05-15T19:15:01.736Z,65.06
2023-05-15T19:17:29.020Z,64.42
2023-05-15T19:19:56.140Z,64.06
2023-05-15T19:22:23.177Z,63.83
2023-05-15T19:24:50.088Z,63.67
2023-05-15T19:27:18.351Z,63.39
2023-05-15T19:29:46.212Z,63.32
2023-05-15T19:32:16.485Z,63.02
2023-05-15T19:34:46.422Z,62.86
2023-05-15T19:37:15.614Z,62.79
2023-05-15T19:39:42.650Z,62.62
2023-05-15T19:42:09.699Z,62.59
2023-05-15T19:44:37.817Z,62.59
2023-05-15T19:47:05.027Z,62.30
2023-05-15T19:49:32.075Z,62.42
2023-05-15T19:51:59.345Z,62.23
2023-05-15T19:54:29.438Z,61.82
2023-05-15T19:56:59.148Z,62.07
2023-05-15T19:59:26.199Z,61.94
2023-05-15T20:01:53.385Z,62.04
2023-05-15T20:04:21.276Z,61.96
2023-05-15T20:06:48.902Z,61.85
2023-05-15T20:09:15.918Z,61.80
2023-05-15T20:11:42.965Z,61.75
2023-05-15T20:14:10.893Z,61.68
2023-05-15T20:16:41.377Z,61.61
2023-05-15T20:19:11.471Z,61.53
2023-05-15T20:21:39.130Z,61.60
2023-05-15T20:24:09.478Z,61.44
2023-05-15T20:26:37.880Z,61.37
2023-05-15T20:29:05.629Z,61.39
2023-05-15T20:31:34.698Z,61.28
2023-05-15T20:34:02.822Z,61.38
2023-05-15T20:36:32.776Z,61.36
2023-05-15T20:39:05.857Z,61.24
2023-05-15T20:41:34.836Z,61.27
2023-05-15T20:44:03.556Z,61.19
2023-05-15T20:46:31.919Z,61.06
2023-05-15T20:48:58.895Z,61.10
2023-05-15T20:51:26.107Z,61.25
2023-05-15T20:53:53.298Z,61.24
2023-05-15T20:56:20.346Z,61.05
2023-05-15T20:58:47.798Z,61.06
2023-05-15T21:01:16.080Z,61.08
2023-05-15T21:03:43.621Z,61.10
2023-05-15T21:06:10.622Z,61.01
2023-05-15T21:08:37.638Z,61.06
2023-05-15T21:11:06.011Z,61.09
2023-05-15T21:13:33.064Z,60.92
2023-05-15T21:16:01.637Z,61.01
2023-05-15T21:18:36.592Z,60.94
2023-05-15T21:21:07.387Z,60.91
2023-05-15T21:23:36.914Z,60.92
2023-05-15T21:26:04.900Z,60.82
2023-05-15T21:28:32.300Z,60.93
2023-05-15T21:31:09.154Z,60.85
2023-05-15T21:33:37.299Z,61.01
2023-05-15T21:36:05.353Z,61.20
2023-05-15T21:38:33.129Z,61.49
2023-05-15T21:41:01.927Z,61.47
2023-05-15T21:43:29.803Z,61.46
2023-05-15T21:45:58.058Z,61.42
2023-05-15T21:48:26.463Z,61.19
2023-05-15T21:50:58.086Z,61.19
2023-05-15T21:53:25.846Z,61.18
2023-05-15T21:56:02.873Z,61.22
2023-05-15T21:58:30.119Z,61.13
2023-05-15T22:00:58.567Z,60.98
2023-05-15T22:03:26.161Z,61.06
2023-05-15T22:05:53.479Z,61.08
2023-05-15T22:08:22.580Z,60.95
2023-05-15T22:10:50.437Z,60.93
2023-05-15T22:13:17.602Z,61.06
2023-05-15T22:15:44.857Z,60.99
2023-05-15T22:18:16.739Z,60.87
2023-05-15T22:20:48.003Z,60.92
2023-05-15T22:23:16.015Z,60.83
2023-05-15T22:25:43.067Z,60.94
2023-05-15T22:28:12.477Z,60.85
2023-05-15T22:30:39.516Z,60.95
2023-05-15T22:33:10.049Z,60.86
2023-05-15T22:35:37.641Z,60.88
2023-05-15T22:38:09.050Z,60.80
2023-05-15T22:40:38.140Z,60.75
2023-05-15T22:43:06.167Z,60.75
2023-05-15T22:45:35.054Z,60.66
2023-05-15T22:48:02.613Z,60.58
2023-05-15T22:50:34.953Z,60.59
2023-05-15T22:53:02.095Z,60.55
2023-05-15T22:55:29.134Z,60.65
2023-05-15T22:57:57.726Z,60.53
2023-05-15T23:00:26.392Z,60.51
2023-05-15T23:03:07.328Z,60.63
2023-05-15T23:05:37.774Z,60.66
2023-05-15T23:08:05.686Z,60.61
2023-05-15T23:10:43.247Z,60.49
2023-05-15T23:13:15.986Z,60.50
2023-05-15T23:15:46.198Z,60.57
2023-05-15T23:18:14.728Z,60.46
2023-05-15T23:20:42.263Z,60.53
2023-05-15T23:23:09.464Z,60.64
2023-05-15T23:25:36.551Z,60.49
2023-05-15T23:28:03.758Z,60.48
2023-05-15T23:30:31.013Z,60.45
2023-05-15T23:32:58.752Z,60.35
2023-05-15T23:35:26.237Z,60.41
2023-05-15T23:37:53.488Z,60.39
2023-05-15T23:40:20.680Z,60.36
2023-05-15T23:42:50.661Z,60.40
2023-05-15T23:45:17.703Z,60.37
2023-05-15T23:47:46.761Z,60.36
2023-05-15T23:50:13.708Z,60.27
2023-05-15T23:52:41.207Z,60.18
2023-05-15T23:55:08.768Z,60.16
2023-05-15T23:57:36.216Z,60.20
